createdAt,value
2018-02-16T00:00:58.575Z,76.74
2018-02-16T00:03:26.133Z,76.69
2018-02-16T00:05:53.802Z,76.12
2018-02-16T00:08:21.376Z,76.51
2018-02-16T00:10:48.940Z,76.33
2018-02-16T00:13:16.510Z,75.98
2018-02-16T00:15:44.182Z,76.63
2018-02-16T00:18:12.009Z,76.98
2018-02-16T00:20:39.617Z,76.84
2018-02-16T00:23:07.169Z,76.87
2018-02-16T00:25:34.966Z,76.55
2018-02-16T00:28:02.781Z,76.82
2018-02-16T00:30:30.398Z,77.48
2018-02-16T00:32:57.957Z,77.89
2018-02-16T00:35:25.735Z,77.44
2018-02-16T00:37:53.554Z,77.98
2018-02-16T00:40:21.273Z,77.89
2018-02-16T00:42:49.091Z,78.00
2018-02-16T00:45:16.658Z,77.94
2018-02-16T00:47:44.244Z,77.74
2018-02-16T00:50:12.047Z,77.42
2018-02-16T00:52:39.738Z,77.41
2018-02-16T00:55:07.359Z,77.57
2018-02-16T00:57:35.100Z,77.24
2018-02-16T01:00:02.818Z,77.12
2018-02-16T01:02:30.399Z,75.91
2018-02-16T01:04:58.118Z,75.98
2018-02-16T01:07:25.737Z,77.40
2018-02-16T01:09:53.403Z,77.74
2018-02-16T01:12:21.110Z,77.65
2018-02-16T01:14:48.927Z,77.37
2018-02-16T01:17:16.532Z,77.11
2018-02-16T01:19:44.158Z,77.35
2018-02-16T01:22:11.726Z,77.27
2018-02-16T01:24:39.498Z,78.17
2018-02-16T01:27:07.315Z,78.29
2018-02-16T01:29:34.943Z,77.84
2018-02-16T01:32:02.753Z,77.26
2018-02-16T01:34:30.314Z,76.91
2018-02-16T01:36:58.090Z,76.94
2018-02-16T01:39:26.009Z,76.98
2018-02-16T01:41:53.576Z,77.34
2018-02-16T01:44:21.193Z,77.51
2018-02-16T01:46:48.963Z,77.70
2018-02-16T01:49:16.520Z,77.88
2018-02-16T01:51:44.077Z,77.88
2018-02-16T01:54:11.817Z,78.19
2018-02-16T01:56:39.427Z,77.85
2018-02-16T01:59:06.978Z,77.47
2018-02-16T02:01:34.771Z,77.49
2018-02-16T02:04:02.490Z,77.41
2018-02-16T02:06:30.055Z,78.39
2018-02-16T02:08:57.676Z,78.69
2018-02-16T02:11:25.229Z,78.53
2018-02-16T02:13:52.795Z,77.85
2018-02-16T02:16:20.579Z,78.08
2018-02-16T02:18:48.143Z,78.25
2018-02-16T02:21:15.761Z,77.72
2018-02-16T02:23:43.319Z,75.11
2018-02-16T02:26:11.051Z,73.50
2018-02-16T02:28:38.869Z,73.23
2018-02-16T02:31:06.590Z,73.21
2018-02-16T02:33:34.209Z,73.67
2018-02-16T02:36:01.770Z,75.63
2018-02-16T02:38:29.332Z,76.37
2018-02-16T02:40:56.915Z,76.53
2018-02-16T02:43:24.485Z,77.41
2018-02-16T02:45:52.188Z,77.93
2018-02-16T02:48:19.760Z,77.97
2018-02-16T02:50:47.489Z,78.32
2018-02-16T02:53:15.054Z,77.66
2018-02-16T02:55:42.680Z,75.52
2018-02-16T02:58:10.293Z,74.53
2018-02-16T03:00:38.104Z,76.45
2018-02-16T03:03:05.823Z,76.96
2018-02-16T03:05:33.399Z,76.58
2018-02-16T03:08:00.963Z,76.55
2018-02-16T03:10:28.589Z,77.47
2018-02-16T03:12:56.393Z,78.07
2018-02-16T03:15:23.953Z,78.27
2018-02-16T03:17:51.733Z,77.89
2018-02-16T03:20:19.548Z,78.26
2018-02-16T03:22:47.169Z,78.70
2018-02-16T03:25:14.730Z,78.32
2018-02-16T03:27:42.287Z,77.41
2018-02-16T03:30:09.869Z,75.09
2018-02-16T03:32:37.638Z,75.20
2018-02-16T03:35:05.282Z,72.46
2018-02-16T03:37:32.846Z,74.28
2018-02-16T03:40:00.404Z,75.88
2018-02-16T03:42:28.903Z,77.54
2018-02-16T03:44:56.635Z,77.39
2018-02-16T03:47:24.283Z,78.12
2018-02-16T03:49:51.874Z,79.04
2018-02-16T03:52:19.685Z,79.22
2018-02-16T03:54:47.505Z,79.21
2018-02-16T03:57:15.086Z,79.50
2018-02-16T03:59:42.679Z,79.43
2018-02-16T04:02:10.434Z,78.90
2018-02-16T04:04:38.057Z,78.48
2018-02-16T04:07:05.796Z,78.63
2018-02-16T04:09:33.514Z,79.05
2018-02-16T04:12:01.136Z,79.22
2018-02-16T04:14:28.698Z,78.94
2018-02-16T04:16:56.255Z,78.15
2018-02-16T04:19:23.984Z,77.69
2018-02-16T04:21:51.703Z,77.97
2018-02-16T04:24:19.329Z,78.04
2018-02-16T04:26:46.910Z,78.08
2018-02-16T04:29:14.468Z,78.05
2018-02-16T04:31:42.063Z,78.21
2018-02-16T04:34:09.791Z,78.30
2018-02-16T04:36:37.561Z,78.58
2018-02-16T04:39:05.328Z,78.64
2018-02-16T04:41:33.044Z,78.63
2018-02-16T04:44:00.616Z,78.39
2018-02-16T04:46:28.383Z,78.59
2018-02-16T04:48:56.201Z,78.85
2018-02-16T04:51:23.769Z,78.64
2018-02-16T04:53:51.330Z,78.54
2018-02-16T04:56:18.946Z,77.92
2018-02-16T04:58:46.502Z,77.67
2018-02-16T05:01:14.248Z,76.87
2018-02-16T05:03:41.814Z,75.81
2018-02-16T05:06:09.628Z,75.47
2018-02-16T05:08:37.236Z,75.97
2018-02-16T05:11:04.862Z,76.54
2018-02-16T05:13:32.498Z,76.34
2018-02-16T05:16:00.301Z,76.36
2018-02-16T05:18:28.267Z,76.49
2018-02-16T05:20:56.002Z,76.51
2018-02-16T05:23:23.561Z,76.88
2018-02-16T05:25:51.294Z,77.00
2018-02-16T05:28:18.857Z,76.90
2018-02-16T05:30:46.603Z,76.42
2018-02-16T05:33:14.427Z,76.62
2018-02-16T05:35:41.990Z,76.87
2018-02-16T05:38:09.741Z,77.11
2018-02-16T05:40:37.396Z,77.55
2018-02-16T05:43:05.030Z,77.20
2018-02-16T05:45:32.602Z,77.23
2018-02-16T05:48:00.223Z,77.76
2018-02-16T05:50:27.794Z,76.87
2018-02-16T05:52:55.350Z,76.36
2018-02-16T05:55:22.978Z,76.32
2018-02-16T05:57:50.707Z,75.77
2018-02-16T06:00:18.273Z,75.93
2018-02-16T06:02:45.943Z,75.99
2018-02-16T06:05:13.661Z,76.32
2018-02-16T06:07:41.306Z,75.84
2018-02-16T06:10:09.100Z,75.71
2018-02-16T06:12:36.661Z,75.91
2018-02-16T06:15:04.277Z,75.39
2018-02-16T06:17:31.834Z,74.59
2018-02-16T06:19:59.500Z,74.57
2018-02-16T06:22:27.287Z,73.97
2018-02-16T06:24:54.863Z,72.63
2018-02-16T06:27:22.466Z,73.47
2018-02-16T06:29:50.121Z,73.66
2018-02-16T06:32:17.737Z,73.44
2018-02-16T06:34:45.439Z,71.74
2018-02-16T06:37:12.998Z,71.93
2018-02-16T06:39:40.813Z,72.21
2018-02-16T06:42:08.532Z,71.10
2018-02-16T06:44:36.329Z,70.02
2018-02-16T06:47:03.886Z,69.76
2018-02-16T06:49:31.687Z,69.34
2018-02-16T06:51:59.262Z,69.10
2018-02-16T06:54:26.921Z,69.07
2018-02-16T06:56:54.685Z,66.96
2018-02-16T06:59:22.243Z,66.73
2018-02-16T07:01:49.803Z,67.20
2018-02-16T07:04:17.558Z,67.29
2018-02-16T07:06:45.315Z,68.10
2018-02-16T07:09:13.131Z,67.05
2018-02-16T07:11:40.689Z,66.73
2018-02-16T07:14:08.249Z,66.56
2018-02-16T07:16:35.828Z,65.48
2018-02-16T07:19:03.390Z,64.81
2018-02-16T07:21:31.018Z,64.76
2018-02-16T07:23:58.643Z,61.57
2018-02-16T07:26:26.220Z,62.55
2018-02-16T07:28:53.794Z,62.66
2018-02-16T07:31:21.362Z,61.56
2018-02-16T07:33:48.989Z,60.78
2018-02-16T07:36:16.719Z,61.28
2018-02-16T07:38:44.271Z,61.97
2018-02-16T07:41:12.067Z,61.89
2018-02-16T07:43:39.625Z,62.06
2018-02-16T07:46:07.254Z,62.23
2018-02-16T07:48:34.822Z,62.52
2018-02-16T07:51:02.427Z,62.32
2018-02-16T07:53:29.979Z,62.85
2018-02-16T07:55:57.632Z,62.24
2018-02-16T07:58:25.465Z,62.63
2018-02-16T08:00:53.060Z,62.74
2018-02-16T08:03:20.728Z,62.01
2018-02-16T08:05:48.544Z,61.88
2018-02-16T08:08:16.120Z,60.26
2018-02-16T08:10:43.754Z,60.47
2018-02-16T08:13:11.323Z,59.72
2018-02-16T08:15:39.120Z,60.14
2018-02-16T08:18:07.766Z,60.83
2018-02-16T08:20:35.377Z,57.34
2018-02-16T08:23:02.997Z,56.58
2018-02-16T08:25:30.796Z,56.38
2018-02-16T08:27:58.358Z,56.27
2018-02-16T08:30:25.930Z,57.08
2018-02-16T08:32:53.489Z,57.31
2018-02-16T08:35:21.127Z,55.74
2018-02-16T08:37:48.851Z,56.36
2018-02-16T08:40:16.567Z,55.51
2018-02-16T08:42:44.284Z,56.33
2018-02-16T08:45:11.877Z,56.39
2018-02-16T08:47:39.654Z,55.34
2018-02-16T08:50:07.227Z,52.82
2018-02-16T08:52:34.803Z,53.50
2018-02-16T08:55:02.378Z,49.88
2018-02-16T08:57:29.937Z,49.28
2018-02-16T08:59:57.637Z,51.13
2018-02-16T09:02:25.362Z,48.42
2018-02-16T09:04:53.081Z,47.95
2018-02-16T09:07:20.898Z,45.98
2018-02-16T09:09:48.470Z,45.20
2018-02-16T09:12:16.180Z,45.73
2018-02-16T09:14:43.723Z,46.69
2018-02-16T09:17:11.470Z,48.54
2018-02-16T09:19:39.042Z,48.57
2018-02-16T09:22:06.602Z,48.51
2018-02-16T09:24:34.429Z,48.57
2018-02-16T09:27:02.144Z,46.88
2018-02-16T09:29:29.861Z,47.19
2018-02-16T09:31:57.467Z,48.12
2018-02-16T09:34:25.015Z,47.46
2018-02-16T09:36:54.720Z,47.15
2018-02-16T09:39:23.465Z,47.72
2018-02-16T09:41:51.025Z,48.14
2018-02-16T09:44:18.600Z,48.45
2018-02-16T09:46:46.179Z,47.70
2018-02-16T09:49:14.017Z,47.64
2018-02-16T09:51:41.563Z,48.34
2018-02-16T09:54:09.182Z,48.71
2018-02-16T09:56:36.809Z,48.23
2018-02-16T09:59:04.399Z,48.22
2018-02-16T10:01:32.123Z,48.05
2018-02-16T10:03:59.689Z,48.05
2018-02-16T10:06:27.268Z,47.39
2018-02-16T10:08:54.967Z,46.29
2018-02-16T10:11:22.558Z,44.71
2018-02-16T10:13:50.175Z,44.49
2018-02-16T10:16:18.014Z,45.23
2018-02-16T10:18:45.832Z,44.39
2018-02-16T10:21:13.429Z,43.25
2018-02-16T10:23:41.059Z,45.54
2018-02-16T10:26:08.692Z,45.71
2018-02-16T10:28:36.261Z,44.99
2018-02-16T10:31:03.894Z,46.14
2018-02-16T10:33:31.740Z,44.02
2018-02-16T10:35:59.301Z,43.72
2018-02-16T10:38:27.076Z,44.63
2018-02-16T10:40:54.659Z,42.79
2018-02-16T10:43:22.302Z,42.97
2018-02-16T10:45:49.878Z,43.25
2018-02-16T10:48:17.547Z,43.00
2018-02-16T10:50:45.233Z,42.58
2018-02-16T10:53:12.872Z,41.31
2018-02-16T10:55:40.590Z,40.52
2018-02-16T10:58:08.178Z,39.81
2018-02-16T11:00:41.660Z,40.51
2018-02-16T11:03:14.813Z,39.85
2018-02-16T11:05:47.799Z,39.94
2018-02-16T11:08:21.038Z,38.61
2018-02-16T11:10:48.606Z,38.99
2018-02-16T11:13:16.199Z,37.73
2018-02-16T11:15:43.761Z,38.50
2018-02-16T11:18:11.386Z,40.37
2018-02-16T11:20:39.042Z,39.59
2018-02-16T11:23:07.392Z,38.83
2018-02-16T11:25:37.101Z,37.81
2018-02-16T11:28:04.661Z,39.25
2018-02-16T11:30:32.273Z,37.84
2018-02-16T11:32:59.856Z,38.89
2018-02-16T11:35:27.403Z,40.32
2018-02-16T11:37:55.006Z,41.31
2018-02-16T11:40:22.786Z,41.66
2018-02-16T11:42:50.628Z,40.56
2018-02-16T11:45:18.202Z,40.16
2018-02-16T11:47:45.765Z,41.33
2018-02-16T11:50:13.334Z,40.45
2018-02-16T11:52:40.913Z,41.84
2018-02-16T11:55:08.530Z,38.81
2018-02-16T11:57:36.341Z,40.08
2018-02-16T12:00:04.157Z,38.74
2018-02-16T12:02:31.976Z,35.42
2018-02-16T12:04:59.590Z,36.88
2018-02-16T12:07:27.205Z,35.80
2018-02-16T12:09:54.775Z,36.33
2018-02-16T12:12:22.439Z,35.00
2018-02-16T12:14:50.146Z,33.35
2018-02-16T12:17:17.884Z,34.11
2018-02-16T12:19:45.593Z,35.82
2018-02-16T12:22:13.201Z,35.68
2018-02-16T12:24:40.748Z,35.55
2018-02-16T12:27:08.313Z,34.53
2018-02-16T12:29:35.878Z,33.70
2018-02-16T12:32:03.514Z,33.69
2018-02-16T12:34:31.360Z,32.90
2018-02-16T12:36:59.019Z,33.44
2018-02-16T12:39:26.746Z,34.66
2018-02-16T12:41:54.564Z,33.30
2018-02-16T12:44:22.275Z,36.38
2018-02-16T12:46:50.293Z,35.80
2018-02-16T12:49:17.867Z,34.54
2018-02-16T12:51:45.452Z,34.10
2018-02-16T12:54:13.050Z,34.41
2018-02-16T12:56:40.844Z,33.18
2018-02-16T12:59:08.397Z,32.27
2018-02-16T13:01:36.101Z,32.98
2018-02-16T13:04:03.674Z,33.63
2018-02-16T13:06:31.237Z,34.50
2018-02-16T13:08:58.857Z,34.43
2018-02-16T13:11:26.422Z,35.58
2018-02-16T13:13:54.052Z,35.15
2018-02-16T13:16:21.614Z,35.51
2018-02-16T13:18:49.178Z,36.48
2018-02-16T13:21:16.827Z,36.27
2018-02-16T13:23:44.377Z,35.35
2018-02-16T13:26:11.965Z,35.10
2018-02-16T13:28:39.530Z,35.31
2018-02-16T13:31:07.085Z,33.39
2018-02-16T13:33:34.715Z,33.89
2018-02-16T13:36:02.284Z,35.04
2018-02-16T13:38:29.868Z,34.23
2018-02-16T13:40:57.596Z,32.59
2018-02-16T13:43:25.313Z,33.14
2018-02-16T13:45:52.930Z,33.46
2018-02-16T13:48:20.493Z,31.88
2018-02-16T13:50:48.186Z,32.55
2018-02-16T13:53:15.754Z,30.82
2018-02-16T13:55:43.317Z,32.04
2018-02-16T13:58:11.002Z,31.71
2018-02-16T14:00:38.561Z,31.71
2018-02-16T14:03:06.243Z,31.19
2018-02-16T14:05:33.864Z,31.87
2018-02-16T14:08:02.092Z,30.20
2018-02-16T14:10:29.827Z,30.37
2018-02-16T14:12:57.390Z,30.05
2018-02-16T14:15:25.010Z,32.61
2018-02-16T14:17:52.578Z,31.93
2018-02-16T14:20:20.155Z,31.85
2018-02-16T14:22:48.009Z,31.55
2018-02-16T14:25:15.578Z,30.84
2018-02-16T14:27:43.160Z,31.01
2018-02-16T14:30:10.850Z,31.14
2018-02-16T14:32:38.448Z,31.40
2018-02-16T14:35:06.070Z,31.36
2018-02-16T14:37:33.778Z,31.67
2018-02-16T14:40:01.499Z,30.67
2018-02-16T14:42:29.076Z,31.08
2018-02-16T14:44:56.638Z,31.78
2018-02-16T14:47:24.267Z,32.82
2018-02-16T14:49:51.862Z,33.40
2018-02-16T14:52:19.582Z,32.90
2018-02-16T14:54:47.149Z,32.08
2018-02-16T14:57:14.958Z,32.38
2018-02-16T14:59:42.573Z,32.49
2018-02-16T15:02:10.137Z,32.82
2018-02-16T15:04:37.836Z,32.50
2018-02-16T15:07:05.506Z,33.15
2018-02-16T15:09:33.158Z,35.08
2018-02-16T15:12:00.881Z,37.54
2018-02-16T15:14:28.462Z,39.02
2018-02-16T15:16:56.037Z,41.47
2018-02-16T15:19:23.644Z,42.54
2018-02-16T15:21:51.214Z,44.82
2018-02-16T15:24:18.838Z,46.92
2018-02-16T15:26:46.569Z,47.92
2018-02-16T15:29:14.288Z,50.27
2018-02-16T15:31:41.878Z,50.87
2018-02-16T15:34:09.825Z,51.43
2018-02-16T15:36:37.517Z,52.81
2018-02-16T15:39:05.321Z,53.23
2018-02-16T15:41:32.918Z,53.60
2018-02-16T15:44:00.490Z,54.81
2018-02-16T15:46:28.054Z,55.75
2018-02-16T15:48:55.745Z,56.20
2018-02-16T15:51:24.351Z,56.70
2018-02-16T15:53:51.988Z,57.83
2018-02-16T15:56:19.701Z,57.83
2018-02-16T15:58:47.312Z,58.19
2018-02-16T16:01:14.918Z,58.20
2018-02-16T16:03:42.645Z,59.44
2018-02-16T16:06:10.214Z,60.03
2018-02-16T16:08:37.794Z,60.53
2018-02-16T16:11:05.600Z,60.22
2018-02-16T16:13:33.220Z,60.09
2018-02-16T16:16:00.934Z,60.19
2018-02-16T16:18:28.494Z,60.29
2018-02-16T16:20:56.066Z,61.26
2018-02-16T16:23:23.790Z,61.45
2018-02-16T16:25:51.498Z,62.38
2018-02-16T16:28:19.225Z,62.26
2018-02-16T16:30:46.793Z,62.56
2018-02-16T16:33:14.452Z,63.11
2018-02-16T16:35:42.022Z,63.29
2018-02-16T16:38:09.815Z,63.87
2018-02-16T16:40:37.382Z,63.71
2018-02-16T16:43:04.942Z,62.96
2018-02-16T16:45:32.530Z,63.05
2018-02-16T16:48:00.268Z,63.96
2018-02-16T16:50:28.087Z,63.96
2018-02-16T16:52:55.647Z,63.98
2018-02-16T16:55:23.221Z,64.76
2018-02-16T16:57:51.144Z,65.04
2018-02-16T17:00:18.715Z,64.35
2018-02-16T17:02:46.338Z,65.25
2018-02-16T17:05:14.099Z,64.38
2018-02-16T17:07:41.914Z,64.69
2018-02-16T17:10:09.494Z,65.12
2018-02-16T17:12:37.051Z,65.52
2018-02-16T17:15:04.868Z,65.31
2018-02-16T17:17:32.425Z,66.05
2018-02-16T17:19:59.981Z,65.94
2018-02-16T17:22:27.555Z,66.34
2018-02-16T17:24:55.117Z,66.18
2018-02-16T17:27:22.737Z,66.27
2018-02-16T17:29:50.476Z,66.22
2018-02-16T17:32:18.034Z,66.42
2018-02-16T17:34:45.600Z,66.12
2018-02-16T17:37:13.163Z,65.91
2018-02-16T17:39:41.047Z,65.74
2018-02-16T17:42:08.611Z,66.77
2018-02-16T17:44:36.179Z,67.36
2018-02-16T17:47:04.007Z,68.60
2018-02-16T17:49:31.721Z,69.18
2018-02-16T17:51:59.329Z,69.87
2018-02-16T17:54:27.055Z,70.20
2018-02-16T17:56:54.618Z,70.70
2018-02-16T17:59:22.206Z,70.81
2018-02-16T18:01:49.801Z,70.44
2018-02-16T18:04:17.434Z,71.21
2018-02-16T18:06:44.994Z,71.31
2018-02-16T18:09:12.572Z,71.22
2018-02-16T18:11:40.205Z,70.52
2018-02-16T18:14:07.999Z,71.27
2018-02-16T18:16:35.618Z,71.28
2018-02-16T18:19:03.178Z,72.04
2018-02-16T18:21:30.868Z,72.46
2018-02-16T18:23:58.506Z,72.48
2018-02-16T18:26:26.253Z,73.00
2018-02-16T18:28:53.873Z,73.12
2018-02-16T18:31:21.437Z,72.65
2018-02-16T18:33:49.243Z,72.60
2018-02-16T18:36:16.827Z,72.29
2018-02-16T18:38:44.579Z,72.68
2018-02-16T18:41:12.202Z,73.00
2018-02-16T18:43:40.016Z,73.20
2018-02-16T18:46:07.578Z,72.96
2018-02-16T18:48:35.321Z,73.04
2018-02-16T18:51:02.876Z,73.95
2018-02-16T18:53:30.505Z,74.77
2018-02-16T18:55:58.074Z,75.27
2018-02-16T18:58:25.635Z,75.34
2018-02-16T19:00:53.322Z,75.32
2018-02-16T19:03:20.871Z,75.50
2018-02-16T19:05:48.504Z,74.86
2018-02-16T19:08:16.069Z,74.82
2018-02-16T19:10:43.676Z,74.67
2018-02-16T19:13:11.255Z,74.14
2018-02-16T19:15:38.933Z,74.51
2018-02-16T19:18:06.554Z,74.65
2018-02-16T19:20:34.121Z,74.35
2018-02-16T19:23:01.677Z,75.17
2018-02-16T19:25:29.242Z,74.90
2018-02-16T19:27:57.038Z,74.79
2018-02-16T19:30:24.670Z,74.97
2018-02-16T19:32:52.248Z,75.96
2018-02-16T19:35:19.809Z,75.78
2018-02-16T19:37:47.610Z,75.52
2018-02-16T19:40:15.435Z,75.42
2018-02-16T19:42:43.548Z,75.81
2018-02-16T19:45:11.113Z,75.96
2018-02-16T19:47:38.685Z,76.37
2018-02-16T19:50:06.287Z,76.82
2018-02-16T19:52:33.853Z,77.28
2018-02-16T19:55:01.465Z,77.64
2018-02-16T19:57:29.255Z,77.77
2018-02-16T19:59:57.075Z,78.23
2018-02-16T20:02:24.883Z,79.08
2018-02-16T20:04:52.611Z,78.24
2018-02-16T20:07:20.222Z,78.50
2018-02-16T20:09:47.906Z,77.94
2018-02-16T20:12:15.558Z,78.12
2018-02-16T20:14:43.282Z,78.11
2018-02-16T20:17:11.102Z,78.49
2018-02-16T20:19:38.919Z,78.24
2018-02-16T20:22:06.473Z,78.59
2018-02-16T20:24:34.120Z,79.39
2018-02-16T20:27:01.695Z,78.75
2018-02-16T20:29:29.270Z,78.83
2018-02-16T20:31:56.899Z,78.83
2018-02-16T20:34:24.477Z,78.22
2018-02-16T20:36:52.068Z,78.92
2018-02-16T20:39:19.650Z,78.74
2018-02-16T20:41:47.233Z,78.55
2018-02-16T20:44:14.857Z,78.04
2018-02-16T20:46:42.414Z,78.18
2018-02-16T20:49:09.970Z,78.38
2018-02-16T20:51:37.752Z,78.58
2018-02-16T20:54:05.309Z,78.99
2018-02-16T20:56:33.089Z,79.03
2018-02-16T20:59:00.780Z,80.31
2018-02-16T21:01:28.531Z,80.27
2018-02-16T21:03:56.126Z,79.99
2018-02-16T21:06:23.729Z,79.81
2018-02-16T21:08:51.381Z,79.63
2018-02-16T21:11:19.122Z,79.95
2018-02-16T21:13:46.915Z,80.22
2018-02-16T21:16:14.734Z,80.23
2018-02-16T21:18:42.306Z,80.33
2018-02-16T21:21:09.925Z,80.62
2018-02-16T21:23:37.505Z,80.79
2018-02-16T21:26:05.057Z,80.82
2018-02-16T21:28:32.658Z,80.84
2018-02-16T21:31:00.217Z,81.68
2018-02-16T21:33:27.823Z,80.99
2018-02-16T21:35:55.577Z,80.81
2018-02-16T21:38:23.177Z,80.76
2018-02-16T21:40:50.741Z,81.13
2018-02-16T21:43:18.315Z,81.02
2018-02-16T21:45:45.942Z,80.77
2018-02-16T21:48:13.641Z,80.80
2018-02-16T21:50:41.193Z,81.07
2018-02-16T21:53:08.766Z,80.89
2018-02-16T21:55:36.325Z,80.84
2018-02-16T21:58:03.950Z,80.83
2018-02-16T22:00:31.757Z,80.92
2018-02-16T22:02:59.575Z,81.28
2018-02-16T22:05:27.141Z,81.72
2018-02-16T22:07:54.911Z,81.90
2018-02-16T22:10:22.576Z,81.66
2018-02-16T22:12:50.134Z,82.24
2018-02-16T22:15:17.678Z,82.82
2018-02-16T22:17:45.482Z,82.29
2018-02-16T22:20:13.040Z,81.96
2018-02-16T22:22:40.664Z,82.04
2018-02-16T22:25:08.231Z,81.69
2018-02-16T22:27:35.874Z,81.61
2018-02-16T22:30:03.654Z,81.80
2018-02-16T22:32:31.390Z,81.76
2018-02-16T22:34:59.017Z,81.97
2018-02-16T22:37:26.578Z,82.13
2018-02-16T22:39:54.119Z,81.82
2018-02-16T22:42:21.836Z,81.87
2018-02-16T22:44:49.397Z,82.13
2018-02-16T22:47:16.961Z,82.29
2018-02-16T22:49:44.558Z,82.59
2018-02-16T22:52:12.334Z,82.45
2018-02-16T22:54:40.073Z,82.45
2018-02-16T22:57:07.618Z,82.60
2018-02-16T22:59:35.166Z,82.71
2018-02-16T23:02:02.726Z,82.79
2018-02-16T23:04:30.345Z,82.59
2018-02-16T23:06:57.918Z,82.61
2018-02-16T23:09:25.482Z,82.73
2018-02-16T23:11:53.054Z,83.00
2018-02-16T23:14:20.625Z,83.47
2018-02-16T23:16:48.274Z,83.38
2018-02-16T23:19:16.030Z,83.46
2018-02-16T23:21:43.617Z,83.69
2018-02-16T23:24:11.221Z,83.85
2018-02-16T23:26:38.781Z,83.90
2018-02-16T23:29:06.602Z,83.67
2018-02-16T23:31:34.421Z,83.28
2018-02-16T23:34:01.986Z,83.34
2018-02-16T23:36:29.757Z,83.33
2018-02-16T23:38:57.317Z,83.63
2018-02-16T23:41:24.882Z,83.90
2018-02-16T23:43:52.392Z,83.53
2018-02-16T23:46:20.019Z,83.14
2018-02-16T23:48:47.587Z,83.23
2018-02-16T23:51:15.150Z,83.28
2018-02-16T23:53:42.733Z,83.54
2018-02-16T23:56:10.551Z,83.37
2018-02-16T23:58:38.107Z,83.82
